sensor_id;sensor_type;location;lat;lon;timestamp;P1;durP1;ratioP1;P2;durP2;ratioP2
12433;SDS011;6281;49.038;8.372;2023-03-31T00:01:08;4.30;;;1.40;;
12433;SDS011;6281;49.038;8.372;2023-03-31T00:03:35;6.57;;;1.83;;
12433;SDS011;6281;49.038;8.372;2023-03-31T00:06:09;6.70;;;1.60;;
12433;SDS011;6281;49.038;8.372;2023-03-31T00:08:42;3.23;;;1.30;;
12433;SDS011;6281;49.038;8.372;2023-03-31T00:11:09;5.33;;;1.93;;
12433;SDS011;6281;49.038;8.372;2023-03-31T00:13:38;3.87;;;1.43;;
12433;SDS011;6281;49.038;8.372;2023-03-31T00:16:05;5.47;;;1.67;;
12433;SDS011;6281;49.038;8.372;2023-03-31T00:18:34;5.67;;;1.57;;
12433;SDS011;6281;49.038;8.372;2023-03-31T00:21:05;6.60;;;1.43;;
12433;SDS011;6281;49.038;8.372;2023-03-31T00:23:33;5.00;;;1.00;;
12433;SDS011;6281;49.038;8.372;2023-03-31T00:26:00;7.17;;;1.57;;
12433;SDS011;6281;49.038;8.372;2023-03-31T00:28:26;7.57;;;1.57;;
12433;SDS011;6281;49.038;8.372;2023-03-31T00:30:58;4.20;;;1.47;;
12433;SDS011;6281;49.038;8.372;2023-03-31T00:33:26;5.03;;;1.50;;
12433;SDS011;6281;49.038;8.372;2023-03-31T00:35:53;4.80;;;1.40;;
12433;SDS011;6281;49.038;8.372;2023-03-31T00:38:20;4.87;;;1.43;;
12433;SDS011;6281;49.038;8.372;2023-03-31T00:40:47;3.50;;;1.33;;
12433;SDS011;6281;49.038;8.372;2023-03-31T00:43:22;6.90;;;1.27;;
12433;SDS011;6281;49.038;8.372;2023-03-31T00:45:55;4.23;;;1.43;;
12433;SDS011;6281;49.038;8.372;2023-03-31T00:48:28;3.53;;;1.60;;
12433;SDS011;6281;49.038;8.372;2023-03-31T00:50:56;5.83;;;1.70;;
12433;SDS011;6281;49.038;8.372;2023-03-31T00:53:25;6.43;;;1.53;;
12433;SDS011;6281;49.038;8.372;2023-03-31T00:55:56;3.50;;;1.40;;
12433;SDS011;6281;49.038;8.372;2023-03-31T00:58:27;2.87;;;1.07;;
12433;SDS011;6281;49.038;8.372;2023-03-31T01:00:59;4.73;;;1.70;;
12433;SDS011;6281;49.038;8.372;2023-03-31T01:03:28;3.47;;;1.50;;
12433;SDS011;6281;49.038;8.372;2023-03-31T01:05:58;3.23;;;1.20;;
12433;SDS011;6281;49.038;8.372;2023-03-31T01:08:28;5.47;;;1.57;;
12433;SDS011;6281;49.038;8.372;2023-03-31T01:10:57;3.30;;;1.23;;
12433;SDS011;6281;49.038;8.372;2023-03-31T01:13:27;2.27;;;1.10;;
12433;SDS011;6281;49.038;8.372;2023-03-31T01:15:55;4.37;;;1.50;;
12433;SDS011;6281;49.038;8.372;2023-03-31T01:18:24;5.30;;;1.63;;
12433;SDS011;6281;49.038;8.372;2023-03-31T01:21:09;4.47;;;1.53;;
12433;SDS011;6281;49.038;8.372;2023-03-31T01:24:12;6.37;;;1.30;;
12433;SDS011;6281;49.038;8.372;2023-03-31T01:27:06;4.73;;;1.27;;
12433;SDS011;6281;49.038;8.372;2023-03-31T01:29:52;7.90;;;2.33;;
12433;SDS011;6281;49.038;8.372;2023-03-31T01:35:48;3.27;;;1.07;;
12433;SDS011;6281;49.038;8.372;2023-03-31T01:38:39;4.27;;;1.20;;
12433;SDS011;6281;49.038;8.372;2023-03-31T01:41:35;3.33;;;0.93;;
12433;SDS011;6281;49.038;8.372;2023-03-31T01:44:10;4.80;;;1.00;;
12433;SDS011;6281;49.038;8.372;2023-03-31T01:46:45;3.17;;;1.00;;
12433;SDS011;6281;49.038;8.372;2023-03-31T01:49:20;2.50;;;0.87;;
12433;SDS011;6281;49.038;8.372;2023-03-31T01:51:51;2.80;;;1.20;;
12433;SDS011;6281;49.038;8.372;2023-03-31T01:54:27;3.80;;;1.07;;
12433;SDS011;6281;49.038;8.372;2023-03-31T01:57:05;3.53;;;1.33;;
12433;SDS011;6281;49.038;8.372;2023-03-31T01:59:40;6.83;;;1.37;;
12433;SDS011;6281;49.038;8.372;2023-03-31T02:02:10;3.37;;;0.90;;
12433;SDS011;6281;49.038;8.372;2023-03-31T02:04:43;2.50;;;1.00;;
12433;SDS011;6281;49.038;8.372;2023-03-31T02:07:13;4.40;;;1.17;;
12433;SDS011;6281;49.038;8.372;2023-03-31T02:09:44;4.30;;;1.37;;
12433;SDS011;6281;49.038;8.372;2023-03-31T02:12:16;7.40;;;1.40;;
12433;SDS011;6281;49.038;8.372;2023-03-31T02:14:46;5.03;;;1.40;;
12433;SDS011;6281;49.038;8.372;2023-03-31T02:17:17;4.33;;;1.80;;
12433;SDS011;6281;49.038;8.372;2023-03-31T02:19:54;5.63;;;1.90;;
12433;SDS011;6281;49.038;8.372;2023-03-31T02:22:23;3.63;;;1.50;;
12433;SDS011;6281;49.038;8.372;2023-03-31T02:24:52;6.33;;;2.10;;
12433;SDS011;6281;49.038;8.372;2023-03-31T02:27:23;5.73;;;1.97;;
12433;SDS011;6281;49.038;8.372;2023-03-31T02:29:52;5.97;;;1.80;;
12433;SDS011;6281;49.038;8.372;2023-03-31T02:32:21;7.03;;;2.07;;
12433;SDS011;6281;49.038;8.372;2023-03-31T02:34:50;6.80;;;2.03;;
12433;SDS011;6281;49.038;8.372;2023-03-31T02:37:17;8.53;;;1.97;;
12433;SDS011;6281;49.038;8.372;2023-03-31T02:39:44;8.93;;;2.23;;
12433;SDS011;6281;49.038;8.372;2023-03-31T02:42:14;5.77;;;2.37;;
12433;SDS011;6281;49.038;8.372;2023-03-31T02:44:42;5.37;;;1.87;;
12433;SDS011;6281;49.038;8.372;2023-03-31T02:47:10;6.27;;;2.03;;
12433;SDS011;6281;49.038;8.372;2023-03-31T02:49:40;8.00;;;2.30;;
12433;SDS011;6281;49.038;8.372;2023-03-31T02:52:28;6.63;;;2.40;;
12433;SDS011;6281;49.038;8.372;2023-03-31T02:55:17;3.90;;;1.90;;
12433;SDS011;6281;49.038;8.372;2023-03-31T02:58:14;7.50;;;2.23;;
12433;SDS011;6281;49.038;8.372;2023-03-31T03:01:08;6.67;;;2.17;;
12433;SDS011;6281;49.038;8.372;2023-03-31T03:03:45;4.53;;;1.80;;
12433;SDS011;6281;49.038;8.372;2023-03-31T03:06:27;5.80;;;2.17;;
12433;SDS011;6281;49.038;8.372;2023-03-31T03:09:07;4.40;;;1.73;;
12433;SDS011;6281;49.038;8.372;2023-03-31T03:11:47;4.33;;;2.00;;
12433;SDS011;6281;49.038;8.372;2023-03-31T03:14:23;5.20;;;2.20;;
12433;SDS011;6281;49.038;8.372;2023-03-31T03:17:00;4.77;;;1.87;;
12433;SDS011;6281;49.038;8.372;2023-03-31T03:19:31;5.27;;;2.07;;
12433;SDS011;6281;49.038;8.372;2023-03-31T03:21:58;8.17;;;2.20;;
12433;SDS011;6281;49.038;8.372;2023-03-31T03:24:25;9.20;;;2.30;;
12433;SDS011;6281;49.038;8.372;2023-03-31T03:26:53;5.70;;;2.43;;
12433;SDS011;6281;49.038;8.372;2023-03-31T03:29:21;7.70;;;2.80;;
12433;SDS011;6281;49.038;8.372;2023-03-31T03:31:48;6.03;;;2.10;;
12433;SDS011;6281;49.038;8.372;2023-03-31T03:34:17;7.83;;;2.30;;
12433;SDS011;6281;49.038;8.372;2023-03-31T03:36:44;5.30;;;2.07;;
12433;SDS011;6281;49.038;8.372;2023-03-31T03:39:11;4.60;;;2.20;;
12433;SDS011;6281;49.038;8.372;2023-03-31T03:41:38;7.97;;;2.23;;
12433;SDS011;6281;49.038;8.372;2023-03-31T03:44:05;6.47;;;2.23;;
12433;SDS011;6281;49.038;8.372;2023-03-31T03:46:32;6.57;;;2.50;;
12433;SDS011;6281;49.038;8.372;2023-03-31T03:48:59;7.50;;;2.30;;
12433;SDS011;6281;49.038;8.372;2023-03-31T03:51:27;5.50;;;2.30;;
12433;SDS011;6281;49.038;8.372;2023-03-31T03:53:54;6.77;;;2.13;;
12433;SDS011;6281;49.038;8.372;2023-03-31T03:56:21;7.03;;;2.23;;
12433;SDS011;6281;49.038;8.372;2023-03-31T03:58:48;4.23;;;1.40;;
12433;SDS011;6281;49.038;8.372;2023-03-31T04:01:15;5.03;;;2.03;;
12433;SDS011;6281;49.038;8.372;2023-03-31T04:03:42;4.33;;;2.10;;
12433;SDS011;6281;49.038;8.372;2023-03-31T04:06:09;5.30;;;1.93;;
12433;SDS011;6281;49.038;8.372;2023-03-31T04:08:38;7.53;;;2.43;;
12433;SDS011;6281;49.038;8.372;2023-03-31T04:11:08;6.23;;;2.37;;
12433;SDS011;6281;49.038;8.372;2023-03-31T04:13:38;6.93;;;2.00;;
12433;SDS011;6281;49.038;8.372;2023-03-31T04:16:06;6.37;;;2.17;;
12433;SDS011;6281;49.038;8.372;2023-03-31T04:18:33;4.97;;;2.20;;
12433;SDS011;6281;49.038;8.372;2023-03-31T04:21:01;5.73;;;2.30;;
12433;SDS011;6281;49.038;8.372;2023-03-31T04:23:32;4.47;;;2.13;;
12433;SDS011;6281;49.038;8.372;2023-03-31T04:26:03;6.10;;;2.13;;
12433;SDS011;6281;49.038;8.372;2023-03-31T04:28:33;4.13;;;2.40;;
12433;SDS011;6281;49.038;8.372;2023-03-31T04:31:00;3.83;;;2.43;;
12433;SDS011;6281;49.038;8.372;2023-03-31T04:33:27;7.00;;;2.37;;
12433;SDS011;6281;49.038;8.372;2023-03-31T04:35:54;7.00;;;2.20;;
12433;SDS011;6281;49.038;8.372;2023-03-31T04:38:22;6.00;;;2.40;;
12433;SDS011;6281;49.038;8.372;2023-03-31T04:40:51;3.93;;;2.10;;
12433;SDS011;6281;49.038;8.372;2023-03-31T04:43:20;8.17;;;2.73;;
12433;SDS011;6281;49.038;8.372;2023-03-31T04:45:47;5.43;;;1.90;;
12433;SDS011;6281;49.038;8.372;2023-03-31T04:48:15;4.83;;;2.47;;
12433;SDS011;6281;49.038;8.372;2023-03-31T04:50:42;7.63;;;2.57;;
12433;SDS011;6281;49.038;8.372;2023-03-31T04:53:09;6.83;;;2.53;;
12433;SDS011;6281;49.038;8.372;2023-03-31T04:55:36;5.60;;;2.50;;
12433;SDS011;6281;49.038;8.372;2023-03-31T04:58:03;8.13;;;2.60;;
12433;SDS011;6281;49.038;8.372;2023-03-31T05:00:31;9.07;;;3.03;;
12433;SDS011;6281;49.038;8.372;2023-03-31T05:02:58;4.07;;;2.83;;
12433;SDS011;6281;49.038;8.372;2023-03-31T05:05:25;8.80;;;3.20;;
12433;SDS011;6281;49.038;8.372;2023-03-31T05:07:52;8.97;;;3.17;;
12433;SDS011;6281;49.038;8.372;2023-03-31T05:10:20;10.97;;;3.57;;
12433;SDS011;6281;49.038;8.372;2023-03-31T05:12:47;9.17;;;3.03;;
12433;SDS011;6281;49.038;8.372;2023-03-31T05:15:14;5.33;;;3.40;;
12433;SDS011;6281;49.038;8.372;2023-03-31T05:17:42;9.50;;;3.50;;
12433;SDS011;6281;49.038;8.372;2023-03-31T05:20:10;7.77;;;3.70;;
12433;SDS011;6281;49.038;8.372;2023-03-31T05:22:38;7.10;;;3.17;;
12433;SDS011;6281;49.038;8.372;2023-03-31T05:25:07;7.53;;;3.47;;
12433;SDS011;6281;49.038;8.372;2023-03-31T05:27:36;8.10;;;3.50;;
12433;SDS011;6281;49.038;8.372;2023-03-31T05:30:03;6.93;;;3.63;;
12433;SDS011;6281;49.038;8.372;2023-03-31T05:32:32;6.30;;;3.53;;
12433;SDS011;6281;49.038;8.372;2023-03-31T05:35:01;8.87;;;3.73;;
12433;SDS011;6281;49.038;8.372;2023-03-31T05:37:28;9.13;;;3.53;;
12433;SDS011;6281;49.038;8.372;2023-03-31T05:39:55;7.60;;;3.50;;
12433;SDS011;6281;49.038;8.372;2023-03-31T05:42:22;7.60;;;3.83;;
12433;SDS011;6281;49.038;8.372;2023-03-31T05:44:49;9.63;;;3.93;;
12433;SDS011;6281;49.038;8.372;2023-03-31T05:47:16;7.37;;;3.37;;
12433;SDS011;6281;49.038;8.372;2023-03-31T05:49:43;7.60;;;4.33;;
12433;SDS011;6281;49.038;8.372;2023-03-31T05:52:11;7.60;;;3.67;;
12433;SDS011;6281;49.038;8.372;2023-03-31T05:57:06;6.60;;;3.70;;
12433;SDS011;6281;49.038;8.372;2023-03-31T05:59:33;8.47;;;3.53;;
12433;SDS011;6281;49.038;8.372;2023-03-31T06:02:00;9.90;;;4.30;;
12433;SDS011;6281;49.038;8.372;2023-03-31T06:04:27;11.83;;;4.43;;
12433;SDS011;6281;49.038;8.372;2023-03-31T06:06:56;8.07;;;4.27;;
12433;SDS011;6281;49.038;8.372;2023-03-31T06:09:25;9.27;;;4.70;;
12433;SDS011;6281;49.038;8.372;2023-03-31T06:11:52;9.10;;;4.33;;
12433;SDS011;6281;49.038;8.372;2023-03-31T06:14:19;9.23;;;4.00;;
12433;SDS011;6281;49.038;8.372;2023-03-31T06:16:46;6.50;;;4.17;;
12433;SDS011;6281;49.038;8.372;2023-03-31T06:19:13;7.13;;;4.57;;
12433;SDS011;6281;49.038;8.372;2023-03-31T06:21:40;12.40;;;5.23;;
12433;SDS011;6281;49.038;8.372;2023-03-31T06:24:07;10.93;;;4.77;;
12433;SDS011;6281;49.038;8.372;2023-03-31T06:26:36;10.23;;;4.77;;
12433;SDS011;6281;49.038;8.372;2023-03-31T06:29:02;8.83;;;4.63;;
12433;SDS011;6281;49.038;8.372;2023-03-31T06:31:29;6.53;;;4.87;;
12433;SDS011;6281;49.038;8.372;2023-03-31T06:33:56;9.37;;;5.20;;
12433;SDS011;6281;49.038;8.372;2023-03-31T06:36:23;8.43;;;5.23;;
12433;SDS011;6281;49.038;8.372;2023-03-31T06:38:50;12.77;;;5.00;;
12433;SDS011;6281;49.038;8.372;2023-03-31T06:41:17;9.63;;;4.87;;
12433;SDS011;6281;49.038;8.372;2023-03-31T06:43:47;10.67;;;5.73;;
12433;SDS011;6281;49.038;8.372;2023-03-31T06:46:15;9.47;;;5.40;;
12433;SDS011;6281;49.038;8.372;2023-03-31T06:48:42;8.43;;;5.50;;
12433;SDS011;6281;49.038;8.372;2023-03-31T06:51:09;10.40;;;5.10;;
12433;SDS011;6281;49.038;8.372;2023-03-31T06:53:36;7.83;;;5.27;;
12433;SDS011;6281;49.038;8.372;2023-03-31T06:56:04;11.97;;;5.57;;
12433;SDS011;6281;49.038;8.372;2023-03-31T06:58:31;10.57;;;5.33;;
12433;SDS011;6281;49.038;8.372;2023-03-31T07:01:02;7.90;;;4.50;;
12433;SDS011;6281;49.038;8.372;2023-03-31T07:03:30;6.50;;;4.23;;
12433;SDS011;6281;49.038;8.372;2023-03-31T07:05:57;9.40;;;5.07;;
12433;SDS011;6281;49.038;8.372;2023-03-31T07:08:24;8.33;;;3.93;;
12433;SDS011;6281;49.038;8.372;2023-03-31T07:10:53;10.97;;;4.53;;
12433;SDS011;6281;49.038;8.372;2023-03-31T07:13:21;5.60;;;3.87;;
12433;SDS011;6281;49.038;8.372;2023-03-31T07:15:49;6.77;;;4.00;;
12433;SDS011;6281;49.038;8.372;2023-03-31T07:18:17;7.13;;;3.80;;
12433;SDS011;6281;49.038;8.372;2023-03-31T07:20:46;6.30;;;3.70;;
12433;SDS011;6281;49.038;8.372;2023-03-31T07:23:14;5.10;;;3.07;;
12433;SDS011;6281;49.038;8.372;2023-03-31T07:25:41;7.53;;;2.73;;
12433;SDS011;6281;49.038;8.372;2023-03-31T07:28:09;4.80;;;3.00;;
12433;SDS011;6281;49.038;8.372;2023-03-31T07:30:36;4.67;;;2.80;;
12433;SDS011;6281;49.038;8.372;2023-03-31T07:33:04;4.13;;;2.00;;
12433;SDS011;6281;49.038;8.372;2023-03-31T07:35:33;6.10;;;2.37;;
12433;SDS011;6281;49.038;8.372;2023-03-31T07:38:02;3.23;;;2.07;;
12433;SDS011;6281;49.038;8.372;2023-03-31T07:40:29;4.07;;;1.90;;
12433;SDS011;6281;49.038;8.372;2023-03-31T07:42:56;3.80;;;1.57;;
12433;SDS011;6281;49.038;8.372;2023-03-31T07:45:24;3.20;;;2.10;;
12433;SDS011;6281;49.038;8.372;2023-03-31T07:47:52;4.50;;;1.90;;
12433;SDS011;6281;49.038;8.372;2023-03-31T07:50:19;4.47;;;1.70;;
12433;SDS011;6281;49.038;8.372;2023-03-31T07:52:49;5.97;;;1.90;;
12433;SDS011;6281;49.038;8.372;2023-03-31T07:55:16;3.67;;;1.60;;
12433;SDS011;6281;49.038;8.372;2023-03-31T07:57:44;1.67;;;1.23;;
12433;SDS011;6281;49.038;8.372;2023-03-31T08:00:12;2.47;;;1.33;;
12433;SDS011;6281;49.038;8.372;2023-03-31T08:02:40;3.43;;;1.87;;
12433;SDS011;6281;49.038;8.372;2023-03-31T08:05:08;4.20;;;1.50;;
12433;SDS011;6281;49.038;8.372;2023-03-31T08:07:37;3.03;;;1.37;;
12433;SDS011;6281;49.038;8.372;2023-03-31T08:10:08;2.77;;;0.87;;
12433;SDS011;6281;49.038;8.372;2023-03-31T08:12:36;2.43;;;1.20;;
12433;SDS011;6281;49.038;8.372;2023-03-31T08:15:04;2.73;;;1.17;;
12433;SDS011;6281;49.038;8.372;2023-03-31T08:17:32;2.87;;;1.77;;
12433;SDS011;6281;49.038;8.372;2023-03-31T08:19:58;2.50;;;1.33;;
12433;SDS011;6281;49.038;8.372;2023-03-31T08:22:25;2.20;;;1.23;;
12433;SDS011;6281;49.038;8.372;2023-03-31T08:24:52;5.20;;;1.77;;
12433;SDS011;6281;49.038;8.372;2023-03-31T08:27:21;6.17;;;2.00;;
12433;SDS011;6281;49.038;8.372;2023-03-31T08:29:48;2.03;;;1.03;;
12433;SDS011;6281;49.038;8.372;2023-03-31T08:32:15;3.07;;;1.43;;
12433;SDS011;6281;49.038;8.372;2023-03-31T08:34:42;3.60;;;1.40;;
12433;SDS011;6281;49.038;8.372;2023-03-31T08:37:10;1.90;;;1.33;;
12433;SDS011;6281;49.038;8.372;2023-03-31T08:39:37;1.60;;;0.90;;
12433;SDS011;6281;49.038;8.372;2023-03-31T08:42:04;2.97;;;1.07;;
12433;SDS011;6281;49.038;8.372;2023-03-31T08:44:38;3.00;;;1.00;;
12433;SDS011;6281;49.038;8.372;2023-03-31T08:47:10;2.87;;;1.10;;
12433;SDS011;6281;49.038;8.372;2023-03-31T08:49:43;4.20;;;1.70;;
12433;SDS011;6281;49.038;8.372;2023-03-31T08:52:13;2.87;;;1.40;;
12433;SDS011;6281;49.038;8.372;2023-03-31T08:54:43;4.97;;;1.60;;
12433;SDS011;6281;49.038;8.372;2023-03-31T08:57:14;4.17;;;1.37;;
12433;SDS011;6281;49.038;8.372;2023-03-31T08:59:46;2.57;;;0.87;;
12433;SDS011;6281;49.038;8.372;2023-03-31T09:02:17;3.47;;;1.17;;
12433;SDS011;6281;49.038;8.372;2023-03-31T09:07:45;5.10;;;1.70;;
12433;SDS011;6281;49.038;8.372;2023-03-31T09:10:23;2.03;;;1.10;;
12433;SDS011;6281;49.038;8.372;2023-03-31T09:13:01;4.63;;;1.33;;
12433;SDS011;6281;49.038;8.372;2023-03-31T09:15:39;1.70;;;1.00;;
12433;SDS011;6281;49.038;8.372;2023-03-31T09:18:12;4.70;;;1.20;;
12433;SDS011;6281;49.038;8.372;2023-03-31T09:20:45;3.90;;;1.30;;
12433;SDS011;6281;49.038;8.372;2023-03-31T09:23:19;6.60;;;1.53;;
12433;SDS011;6281;49.038;8.372;2023-03-31T09:25:52;5.20;;;1.50;;
12433;SDS011;6281;49.038;8.372;2023-03-31T09:28:20;3.57;;;1.40;;
12433;SDS011;6281;49.038;8.372;2023-03-31T09:30:52;3.13;;;1.30;;
12433;SDS011;6281;49.038;8.372;2023-03-31T09:33:22;6.23;;;1.10;;
12433;SDS011;6281;49.038;8.372;2023-03-31T09:35:56;3.07;;;1.47;;
12433;SDS011;6281;49.038;8.372;2023-03-31T09:38:23;2.47;;;1.00;;
12433;SDS011;6281;49.038;8.372;2023-03-31T09:40:53;4.57;;;1.23;;
12433;SDS011;6281;49.038;8.372;2023-03-31T09:43:21;4.20;;;1.23;;
12433;SDS011;6281;49.038;8.372;2023-03-31T09:45:51;1.50;;;0.70;;
12433;SDS011;6281;49.038;8.372;2023-03-31T09:48:20;3.40;;;1.07;;
12433;SDS011;6281;49.038;8.372;2023-03-31T09:50:51;5.37;;;1.40;;
12433;SDS011;6281;49.038;8.372;2023-03-31T09:53:24;5.23;;;1.30;;
12433;SDS011;6281;49.038;8.372;2023-03-31T09:56:00;7.10;;;1.77;;
12433;SDS011;6281;49.038;8.372;2023-03-31T09:58:28;3.13;;;1.10;;
12433;SDS011;6281;49.038;8.372;2023-03-31T10:00:58;3.60;;;1.07;;
12433;SDS011;6281;49.038;8.372;2023-03-31T10:03:26;4.53;;;1.50;;
12433;SDS011;6281;49.038;8.372;2023-03-31T10:06:00;3.43;;;1.10;;
12433;SDS011;6281;49.038;8.372;2023-03-31T10:08:29;4.60;;;1.63;;
12433;SDS011;6281;49.038;8.372;2023-03-31T10:11:05;6.93;;;1.93;;
12433;SDS011;6281;49.038;8.372;2023-03-31T10:13:37;8.33;;;1.40;;
12433;SDS011;6281;49.038;8.372;2023-03-31T10:16:12;4.57;;;1.47;;
12433;SDS011;6281;49.038;8.372;2023-03-31T10:18:46;2.93;;;1.27;;
12433;SDS011;6281;49.038;8.372;2023-03-31T10:21:19;7.00;;;1.67;;
12433;SDS011;6281;49.038;8.372;2023-03-31T10:23:48;6.33;;;1.57;;
12433;SDS011;6281;49.038;8.372;2023-03-31T10:26:16;6.20;;;1.23;;
12433;SDS011;6281;49.038;8.372;2023-03-31T10:28:46;8.17;;;2.00;;
12433;SDS011;6281;49.038;8.372;2023-03-31T10:31:16;5.37;;;1.10;;
12433;SDS011;6281;49.038;8.372;2023-03-31T10:33:44;7.00;;;1.50;;
12433;SDS011;6281;49.038;8.372;2023-03-31T10:36:14;6.57;;;1.80;;
12433;SDS011;6281;49.038;8.372;2023-03-31T10:38:46;3.90;;;1.40;;
12433;SDS011;6281;49.038;8.372;2023-03-31T10:41:16;7.83;;;1.73;;
12433;SDS011;6281;49.038;8.372;2023-03-31T10:43:47;4.63;;;1.33;;
12433;SDS011;6281;49.038;8.372;2023-03-31T10:46:17;4.10;;;1.30;;
12433;SDS011;6281;49.038;8.372;2023-03-31T10:48:44;6.03;;;1.60;;
12433;SDS011;6281;49.038;8.372;2023-03-31T10:51:14;3.40;;;1.20;;
12433;SDS011;6281;49.038;8.372;2023-03-31T10:53:43;5.23;;;1.07;;
12433;SDS011;6281;49.038;8.372;2023-03-31T10:56:18;3.53;;;0.97;;
12433;SDS011;6281;49.038;8.372;2023-03-31T11:02:03;1.90;;;0.60;;
12433;SDS011;6281;49.038;8.372;2023-03-31T11:04:50;1.27;;;0.57;;
12433;SDS011;6281;49.038;8.372;2023-03-31T11:07:31;3.53;;;0.77;;
12433;SDS011;6281;49.038;8.372;2023-03-31T11:10:19;2.00;;;0.63;;
12433;SDS011;6281;49.038;8.372;2023-03-31T11:12:59;2.30;;;0.63;;
12433;SDS011;6281;49.038;8.372;2023-03-31T11:15:32;2.93;;;0.40;;
12433;SDS011;6281;49.038;8.372;2023-03-31T11:18:12;0.83;;;0.37;;
12433;SDS011;6281;49.038;8.372;2023-03-31T11:21:00;3.60;;;0.57;;
12433;SDS011;6281;49.038;8.372;2023-03-31T11:23:37;1.60;;;0.60;;
12433;SDS011;6281;49.038;8.372;2023-03-31T11:26:08;1.73;;;0.67;;
12433;SDS011;6281;49.038;8.372;2023-03-31T11:28:41;1.87;;;0.50;;
12433;SDS011;6281;49.038;8.372;2023-03-31T11:31:25;1.97;;;0.73;;
12433;SDS011;6281;49.038;8.372;2023-03-31T11:34:03;1.63;;;0.80;;
12433;SDS011;6281;49.038;8.372;2023-03-31T11:36:49;6.33;;;0.83;;
12433;SDS011;6281;49.038;8.372;2023-03-31T11:39:39;4.43;;;0.57;;
12433;SDS011;6281;49.038;8.372;2023-03-31T11:42:18;1.13;;;0.70;;
12433;SDS011;6281;49.038;8.372;2023-03-31T11:44:49;2.27;;;0.60;;
12433;SDS011;6281;49.038;8.372;2023-03-31T11:47:20;0.90;;;0.30;;
12433;SDS011;6281;49.038;8.372;2023-03-31T11:49:53;0.60;;;0.33;;
12433;SDS011;6281;49.038;8.372;2023-03-31T11:52:24;1.33;;;0.50;;
12433;SDS011;6281;49.038;8.372;2023-03-31T11:54:55;1.47;;;0.67;;
12433;SDS011;6281;49.038;8.372;2023-03-31T11:57:26;1.13;;;0.30;;
12433;SDS011;6281;49.038;8.372;2023-03-31T11:59:57;1.23;;;0.40;;
12433;SDS011;6281;49.038;8.372;2023-03-31T12:02:32;0.97;;;0.40;;
12433;SDS011;6281;49.038;8.372;2023-03-31T12:05:07;2.70;;;0.90;;
12433;SDS011;6281;49.038;8.372;2023-03-31T12:07:42;1.50;;;0.53;;
12433;SDS011;6281;49.038;8.372;2023-03-31T12:10:16;4.00;;;0.57;;
12433;SDS011;6281;49.038;8.372;2023-03-31T12:12:46;1.30;;;0.43;;
12433;SDS011;6281;49.038;8.372;2023-03-31T12:15:18;1.80;;;0.50;;
12433;SDS011;6281;49.038;8.372;2023-03-31T12:17:49;3.13;;;0.70;;
12433;SDS011;6281;49.038;8.372;2023-03-31T12:20:25;1.93;;;0.70;;
12433;SDS011;6281;49.038;8.372;2023-03-31T12:22:57;2.13;;;0.70;;
12433;SDS011;6281;49.038;8.372;2023-03-31T12:25:25;3.57;;;0.60;;
12433;SDS011;6281;49.038;8.372;2023-03-31T12:28:01;1.40;;;0.60;;
12433;SDS011;6281;49.038;8.372;2023-03-31T12:30:29;0.53;;;0.33;;
12433;SDS011;6281;49.038;8.372;2023-03-31T12:33:02;3.47;;;0.50;;
12433;SDS011;6281;49.038;8.372;2023-03-31T12:35:34;2.17;;;0.80;;
12433;SDS011;6281;49.038;8.372;2023-03-31T12:38:15;2.80;;;0.53;;
12433;SDS011;6281;49.038;8.372;2023-03-31T12:40:55;1.73;;;0.83;;
12433;SDS011;6281;49.038;8.372;2023-03-31T12:46:23;1.23;;;0.53;;
12433;SDS011;6281;49.038;8.372;2023-03-31T12:49:11;2.20;;;0.60;;
12433;SDS011;6281;49.038;8.372;2023-03-31T12:51:54;4.33;;;0.80;;
12433;SDS011;6281;49.038;8.372;2023-03-31T12:54:32;1.70;;;0.47;;
12433;SDS011;6281;49.038;8.372;2023-03-31T12:57:15;0.70;;;0.40;;
12433;SDS011;6281;49.038;8.372;2023-03-31T12:59:46;2.17;;;0.63;;
12433;SDS011;6281;49.038;8.372;2023-03-31T13:02:41;3.17;;;0.70;;
12433;SDS011;6281;49.038;8.372;2023-03-31T13:11:17;2.70;;;0.70;;
12433;SDS011;6281;49.038;8.372;2023-03-31T13:13:46;1.07;;;0.50;;
12433;SDS011;6281;49.038;8.372;2023-03-31T13:16:24;2.23;;;0.77;;
12433;SDS011;6281;49.038;8.372;2023-03-31T13:18:51;2.07;;;0.43;;
12433;SDS011;6281;49.038;8.372;2023-03-31T13:21:19;1.73;;;0.83;;
12433;SDS011;6281;49.038;8.372;2023-03-31T13:23:47;2.80;;;0.77;;
12433;SDS011;6281;49.038;8.372;2023-03-31T13:29:18;0.50;;;0.30;;
12433;SDS011;6281;49.038;8.372;2023-03-31T13:32:04;3.63;;;0.90;;
12433;SDS011;6281;49.038;8.372;2023-03-31T13:34:35;0.83;;;0.40;;
12433;SDS011;6281;49.038;8.372;2023-03-31T13:37:10;2.00;;;0.97;;
12433;SDS011;6281;49.038;8.372;2023-03-31T13:39:51;2.10;;;0.70;;
12433;SDS011;6281;49.038;8.372;2023-03-31T13:42:51;3.43;;;0.80;;
12433;SDS011;6281;49.038;8.372;2023-03-31T13:45:50;2.87;;;0.90;;
12433;SDS011;6281;49.038;8.372;2023-03-31T13:48:29;4.47;;;1.10;;
12433;SDS011;6281;49.038;8.372;2023-03-31T13:51:11;3.13;;;0.93;;
12433;SDS011;6281;49.038;8.372;2023-03-31T13:54:01;2.37;;;0.70;;
12433;SDS011;6281;49.038;8.372;2023-03-31T13:56:52;4.40;;;1.40;;
12433;SDS011;6281;49.038;8.372;2023-03-31T13:59:43;2.03;;;0.53;;
12433;SDS011;6281;49.038;8.372;2023-03-31T14:05:29;2.60;;;0.70;;
12433;SDS011;6281;49.038;8.372;2023-03-31T14:08:02;2.80;;;0.70;;
12433;SDS011;6281;49.038;8.372;2023-03-31T14:10:36;4.83;;;0.90;;
12433;SDS011;6281;49.038;8.372;2023-03-31T14:13:05;2.00;;;0.77;;
12433;SDS011;6281;49.038;8.372;2023-03-31T14:15:35;1.83;;;0.90;;
12433;SDS011;6281;49.038;8.372;2023-03-31T14:18:04;4.17;;;0.93;;
12433;SDS011;6281;49.038;8.372;2023-03-31T14:20:34;2.40;;;0.57;;
12433;SDS011;6281;49.038;8.372;2023-03-31T14:23:10;1.40;;;0.67;;
12433;SDS011;6281;49.038;8.372;2023-03-31T14:25:47;4.57;;;0.57;;
12433;SDS011;6281;49.038;8.372;2023-03-31T14:28:21;1.93;;;0.60;;
12433;SDS011;6281;49.038;8.372;2023-03-31T14:31:03;3.13;;;0.70;;
12433;SDS011;6281;49.038;8.372;2023-03-31T14:33:37;1.70;;;0.70;;
12433;SDS011;6281;49.038;8.372;2023-03-31T14:36:12;1.10;;;0.60;;
12433;SDS011;6281;49.038;8.372;2023-03-31T14:38:45;0.57;;;0.30;;
12433;SDS011;6281;49.038;8.372;2023-03-31T14:41:14;3.20;;;0.77;;
12433;SDS011;6281;49.038;8.372;2023-03-31T14:43:45;0.70;;;0.40;;
12433;SDS011;6281;49.038;8.372;2023-03-31T14:46:19;2.10;;;0.50;;
12433;SDS011;6281;49.038;8.372;2023-03-31T14:48:47;2.60;;;0.60;;
12433;SDS011;6281;49.038;8.372;2023-03-31T14:51:17;2.10;;;0.63;;
12433;SDS011;6281;49.038;8.372;2023-03-31T14:53:44;1.63;;;0.53;;
12433;SDS011;6281;49.038;8.372;2023-03-31T14:56:12;1.83;;;0.40;;
12433;SDS011;6281;49.038;8.372;2023-03-31T14:58:42;2.03;;;0.83;;
12433;SDS011;6281;49.038;8.372;2023-03-31T15:01:13;1.43;;;0.60;;
12433;SDS011;6281;49.038;8.372;2023-03-31T15:03:45;1.00;;;0.70;;
12433;SDS011;6281;49.038;8.372;2023-03-31T15:06:12;1.13;;;0.40;;
12433;SDS011;6281;49.038;8.372;2023-03-31T15:08:41;1.33;;;0.67;;
12433;SDS011;6281;49.038;8.372;2023-03-31T15:11:09;0.77;;;0.50;;
12433;SDS011;6281;49.038;8.372;2023-03-31T15:13:40;2.57;;;0.53;;
12433;SDS011;6281;49.038;8.372;2023-03-31T15:16:19;1.33;;;0.57;;
12433;SDS011;6281;49.038;8.372;2023-03-31T15:18:57;2.00;;;0.60;;
12433;SDS011;6281;49.038;8.372;2023-03-31T15:21:26;2.93;;;0.80;;
12433;SDS011;6281;49.038;8.372;2023-03-31T15:23:57;3.13;;;0.83;;
12433;SDS011;6281;49.038;8.372;2023-03-31T15:26:24;2.90;;;0.70;;
12433;SDS011;6281;49.038;8.372;2023-03-31T15:28:56;2.27;;;0.50;;
12433;SDS011;6281;49.038;8.372;2023-03-31T15:31:27;2.87;;;0.90;;
12433;SDS011;6281;49.038;8.372;2023-03-31T15:33:54;2.57;;;0.70;;
12433;SDS011;6281;49.038;8.372;2023-03-31T15:36:23;4.73;;;0.90;;
12433;SDS011;6281;49.038;8.372;2023-03-31T15:38:54;2.77;;;0.90;;
12433;SDS011;6281;49.038;8.372;2023-03-31T15:41:23;4.40;;;1.00;;
12433;SDS011;6281;49.038;8.372;2023-03-31T15:44:02;1.73;;;0.67;;
12433;SDS011;6281;49.038;8.372;2023-03-31T15:49:22;3.03;;;0.87;;
12433;SDS011;6281;49.038;8.372;2023-03-31T15:51:50;2.87;;;0.90;;
12433;SDS011;6281;49.038;8.372;2023-03-31T15:54:30;2.97;;;0.80;;
12433;SDS011;6281;49.038;8.372;2023-03-31T15:57:00;3.73;;;0.90;;